Aviation Digital Data Service (ADDS)

Output produced by METARs form (0312 UTC 18 June 2019)
found at http://www.aviationweather.gov/metar/data/
 
Forecast for: FCPP (POINTE-NOIRE , CG)
Text: TAF FCPP 172300Z 1800/1824 18004KT 7000 SCT010 BKN022
Forecast period: 0000 to 0100 UTC 18 June 2019
Forecast type: FROM: standard forecast or significant change
Winds: from the S (180 degrees) at 5 MPH (4 knots; 2.1 m/s)
Visibility: 4 miles (7 km)
Ceiling: 2200 feet AGL
Clouds: scattered clouds at 1000 feet AGL
broken clouds at 2200 feet AGL
Weather: no significant weather forecast for this period
Text: BECMG 1801/1803 3000 BR
Forecast period: 0100 to 0700 UTC 18 June 2019
Forecast type: BECOMING: Conditions expected to become as follows by 0300 UTC 18 June 2019
Winds: from the S (180 degrees) at 5 MPH (4 knots; 2.1 m/s)
Visibility: 1.86 miles (2.99 km)
Ceiling: 2200 feet AGL
Clouds: scattered clouds at 1000 feet AGL
broken clouds at 2200 feet AGL
Weather: BR  (mist)
Text: BECMG 1807/1809 7000 NSW
Forecast period: 0700 UTC 18 June 2019 to 0000 UTC 19 June 2019
Forecast type: BECOMING: Conditions expected to become as follows by 0900 UTC 18 June 2019
Winds: from the S (180 degrees) at 5 MPH (4 knots; 2.1 m/s)
Visibility: 4 miles (7 km)
Ceiling: 2200 feet AGL
Clouds: scattered clouds at 1000 feet AGL
broken clouds at 2200 feet AGL
Weather: NSW  (no significant weather)